createdAt,value
2023-04-15T00:00:29.379Z,66.67
2023-04-15T00:01:29.368Z,66.67
2023-04-15T00:02:29.504Z,66.77
2023-04-15T00:03:29.688Z,66.77
2023-04-15T00:04:29.494Z,66.77
2023-04-15T00:05:29.315Z,66.77
2023-04-15T00:06:29.301Z,66.77
2023-04-15T00:07:29.286Z,66.77
2023-04-15T00:08:29.276Z,66.77
2023-04-15T00:09:29.252Z,66.77
2023-04-15T00:10:29.396Z,66.77
2023-04-15T00:11:29.233Z,66.77
2023-04-15T00:12:29.221Z,66.80
2023-04-15T00:13:29.229Z,66.77
2023-04-15T00:14:29.194Z,66.80
2023-04-15T00:15:29.183Z,66.77
2023-04-15T00:16:29.184Z,66.80
2023-04-15T00:17:29.181Z,66.80
2023-04-15T00:18:29.140Z,66.80
2023-04-15T00:19:29.124Z,66.77
2023-04-15T00:20:29.114Z,66.80
2023-04-15T00:21:29.131Z,66.80
2023-04-15T00:22:29.104Z,66.80
2023-04-15T00:23:29.095Z,66.91
2023-04-15T00:24:29.060Z,66.80
2023-04-15T00:25:29.056Z,66.80
2023-04-15T00:26:29.030Z,66.91
2023-04-15T00:27:29.018Z,66.91
2023-04-15T00:28:29.005Z,66.91
2023-04-15T00:29:29.016Z,66.91
2023-04-15T00:30:28.994Z,66.91
2023-04-15T00:31:29.025Z,66.91
2023-04-15T00:32:28.960Z,66.80
2023-04-15T00:33:28.959Z,66.91
2023-04-15T00:34:28.933Z,66.91
2023-04-15T00:35:28.912Z,66.91
2023-04-15T00:36:28.891Z,66.91
2023-04-15T00:37:28.885Z,66.91
2023-04-15T00:38:28.875Z,66.91
2023-04-15T00:39:28.852Z,66.91
2023-04-15T00:40:28.846Z,66.91
2023-04-15T00:41:28.828Z,66.91
2023-04-15T00:42:28.819Z,66.91
2023-04-15T00:43:28.805Z,66.91
2023-04-15T00:44:28.793Z,66.91
2023-04-15T00:45:28.873Z,66.80
2023-04-15T00:46:28.778Z,66.80
2023-04-15T00:47:28.782Z,66.91
2023-04-15T00:48:28.742Z,66.80
2023-04-15T00:49:28.727Z,66.91
2023-04-15T00:50:28.713Z,66.91
2023-04-15T00:51:28.699Z,66.91
2023-04-15T00:52:28.686Z,66.91
2023-04-15T00:53:28.670Z,66.91
2023-04-15T00:54:28.662Z,66.91
2023-04-15T00:55:28.644Z,66.91
2023-04-15T00:56:28.634Z,66.91
2023-04-15T00:57:28.618Z,66.91
2023-04-15T00:58:28.605Z,66.91
2023-04-15T00:59:28.591Z,66.91
2023-04-15T01:00:28.580Z,66.91
2023-04-15T01:01:28.667Z,66.91
2023-04-15T01:02:28.707Z,66.91
2023-04-15T01:03:28.618Z,66.91
2023-04-15T01:04:28.659Z,66.91
2023-04-15T01:05:28.512Z,66.91
2023-04-15T01:06:28.497Z,66.91
2023-04-15T01:07:28.484Z,66.91
2023-04-15T01:08:28.471Z,66.91
2023-04-15T01:09:28.451Z,66.91
2023-04-15T01:10:28.435Z,66.91
2023-04-15T01:11:28.432Z,66.91
2023-04-15T01:12:28.424Z,66.91
2023-04-15T01:13:28.402Z,66.91
2023-04-15T01:14:28.392Z,66.91
2023-04-15T01:15:28.378Z,66.91
2023-04-15T01:16:28.407Z,66.91
2023-04-15T01:17:28.409Z,66.91
2023-04-15T01:18:28.336Z,66.91
2023-04-15T01:19:28.320Z,66.91
2023-04-15T01:20:28.313Z,66.91
2023-04-15T01:21:28.302Z,66.91
2023-04-15T01:22:28.283Z,66.91
2023-04-15T01:23:28.272Z,66.91
2023-04-15T01:24:28.260Z,66.91
2023-04-15T01:25:28.246Z,66.91
2023-04-15T01:26:28.302Z,66.91
2023-04-15T01:27:28.219Z,66.91
2023-04-15T01:28:28.204Z,66.91
2023-04-15T01:29:28.192Z,66.91
2023-04-15T01:30:28.176Z,66.91
2023-04-15T01:31:28.184Z,66.91
2023-04-15T01:32:28.157Z,66.91
2023-04-15T01:33:28.159Z,66.91
2023-04-15T01:34:28.119Z,66.91
2023-04-15T01:35:28.119Z,66.91
2023-04-15T01:36:28.111Z,66.91
2023-04-15T01:37:28.081Z,66.91
2023-04-15T01:38:28.069Z,66.91
2023-04-15T01:39:28.054Z,66.91
2023-04-15T01:40:28.041Z,67.01
2023-04-15T01:41:28.037Z,67.01
2023-04-15T01:42:28.017Z,67.01
2023-04-15T01:43:28.000Z,67.01
2023-04-15T01:44:27.994Z,67.01
2023-04-15T01:45:27.983Z,67.01
2023-04-15T01:46:27.981Z,67.01
2023-04-15T01:47:27.964Z,66.91
2023-04-15T01:48:27.939Z,66.91
2023-04-15T01:49:27.951Z,67.01
2023-04-15T01:50:27.915Z,67.01
2023-04-15T01:51:27.896Z,67.01
2023-04-15T01:52:27.883Z,67.01
2023-04-15T01:53:27.870Z,67.01
2023-04-15T01:54:27.861Z,67.01
2023-04-15T01:55:27.851Z,67.01
2023-04-15T01:56:27.840Z,67.01
2023-04-15T01:57:27.816Z,67.01
2023-04-15T01:58:27.815Z,67.01
2023-04-15T01:59:27.795Z,67.01
2023-04-15T02:00:27.778Z,67.01
2023-04-15T02:01:27.866Z,67.01
2023-04-15T02:02:27.909Z,67.01
2023-04-15T02:03:27.847Z,67.01
2023-04-15T02:04:27.723Z,67.01
2023-04-15T02:05:27.735Z,67.01
2023-04-15T02:06:27.699Z,67.01
2023-04-15T02:07:27.685Z,67.01
2023-04-15T02:08:27.680Z,67.01
2023-04-15T02:09:27.658Z,67.01
2023-04-15T02:10:27.646Z,67.01
2023-04-15T02:11:27.634Z,67.01
2023-04-15T02:12:27.620Z,67.01
2023-04-15T02:13:27.611Z,67.01
2023-04-15T02:14:27.592Z,67.01
2023-04-15T02:15:27.582Z,67.01
2023-04-15T02:16:27.626Z,67.01
2023-04-15T02:17:27.572Z,67.01
2023-04-15T02:18:27.543Z,67.01
2023-04-15T02:19:27.525Z,67.01
2023-04-15T02:20:27.514Z,67.01
2023-04-15T02:21:27.523Z,67.01
2023-04-15T02:22:27.486Z,67.11
2023-04-15T02:23:27.477Z,67.01
2023-04-15T02:24:27.461Z,67.11
2023-04-15T02:25:27.445Z,67.01
2023-04-15T02:26:27.433Z,67.11
2023-04-15T02:27:27.419Z,67.11
2023-04-15T02:28:27.413Z,67.11
2023-04-15T02:29:27.390Z,67.11
2023-04-15T02:30:27.387Z,67.11
2023-04-15T02:31:27.380Z,67.11
2023-04-15T02:32:27.394Z,67.11
2023-04-15T02:33:27.338Z,67.11
2023-04-15T02:34:27.363Z,67.11
2023-04-15T02:35:27.311Z,67.11
2023-04-15T02:36:27.297Z,67.11
2023-04-15T02:37:27.308Z,67.11
2023-04-15T02:38:27.272Z,67.11
2023-04-15T02:39:27.262Z,67.11
2023-04-15T02:40:27.246Z,67.11
2023-04-15T02:41:27.231Z,67.21
2023-04-15T02:42:27.219Z,67.21
2023-04-15T02:43:27.209Z,67.11
2023-04-15T02:44:27.193Z,67.21
2023-04-15T02:45:27.176Z,67.21
2023-04-15T02:46:27.194Z,67.21
2023-04-15T02:47:27.194Z,67.21
2023-04-15T02:48:27.152Z,67.11
2023-04-15T02:49:27.125Z,67.21
2023-04-15T02:50:27.118Z,67.21
2023-04-15T02:51:27.130Z,67.21
2023-04-15T02:52:27.085Z,67.21
2023-04-15T02:53:27.093Z,67.21
2023-04-15T02:54:27.059Z,67.21
2023-04-15T02:55:27.042Z,67.21
2023-04-15T02:56:27.031Z,67.21
2023-04-15T02:57:27.015Z,67.21
2023-04-15T02:58:27.003Z,67.21
2023-04-15T02:59:26.988Z,67.21
2023-04-15T03:00:26.978Z,67.21
2023-04-15T03:01:26.965Z,67.21
2023-04-15T03:02:27.065Z,67.21
2023-04-15T03:03:26.994Z,67.21
2023-04-15T03:04:26.924Z,67.21
2023-04-15T03:05:26.907Z,67.21
2023-04-15T03:06:26.895Z,67.21
2023-04-15T03:07:26.881Z,67.21
2023-04-15T03:08:26.867Z,67.21
2023-04-15T03:09:26.877Z,67.21
2023-04-15T03:10:26.842Z,67.21
2023-04-15T03:11:26.825Z,67.21
2023-04-15T03:12:26.819Z,67.21
2023-04-15T03:13:26.799Z,67.21
2023-04-15T03:14:26.789Z,67.21
2023-04-15T03:15:26.820Z,67.21
2023-04-15T03:16:26.750Z,67.21
2023-04-15T03:17:26.776Z,67.21
2023-04-15T03:18:26.742Z,67.32
2023-04-15T03:19:26.719Z,67.21
2023-04-15T03:20:26.764Z,67.21
2023-04-15T03:21:26.693Z,67.21
2023-04-15T03:22:26.678Z,67.32
2023-04-15T03:23:26.667Z,67.32
2023-04-15T03:24:26.657Z,67.32
2023-04-15T03:25:26.665Z,67.32
2023-04-15T03:26:26.621Z,67.32
2023-04-15T03:27:26.647Z,67.32
2023-04-15T03:28:26.592Z,67.32
2023-04-15T03:29:26.589Z,67.32
2023-04-15T03:30:26.579Z,67.32
2023-04-15T03:31:26.684Z,67.32
2023-04-15T03:32:26.561Z,67.32
2023-04-15T03:33:26.535Z,67.32
2023-04-15T03:34:26.528Z,67.32
2023-04-15T03:35:26.508Z,67.32
2023-04-15T03:36:26.493Z,67.32
2023-04-15T03:37:26.535Z,67.32
2023-04-15T03:38:26.467Z,67.32
2023-04-15T03:39:26.461Z,67.32
2023-04-15T03:40:26.445Z,67.32
2023-04-15T03:41:26.453Z,67.32
2023-04-15T03:42:26.416Z,67.32
2023-04-15T03:43:26.403Z,67.32
2023-04-15T03:44:26.386Z,67.32
2023-04-15T03:45:26.375Z,67.42
2023-04-15T03:46:26.364Z,67.32
2023-04-15T03:47:26.390Z,67.32
2023-04-15T03:48:26.337Z,67.32
2023-04-15T03:49:26.330Z,67.32
2023-04-15T03:50:26.308Z,67.32
2023-04-15T03:51:26.295Z,67.32
2023-04-15T03:52:26.282Z,67.32
2023-04-15T03:53:26.277Z,67.32
2023-04-15T03:54:26.255Z,67.32
2023-04-15T03:55:26.242Z,67.32
2023-04-15T03:56:26.229Z,67.32
2023-04-15T03:57:26.240Z,67.32
2023-04-15T03:58:26.221Z,67.32
2023-04-15T03:59:26.187Z,67.32
2023-04-15T04:00:26.175Z,67.32
2023-04-15T04:01:26.166Z,67.42
2023-04-15T04:02:26.455Z,67.32
2023-04-15T04:03:26.325Z,67.42
2023-04-15T04:04:26.219Z,67.42
2023-04-15T04:05:26.123Z,67.42
2023-04-15T04:06:26.101Z,67.42
2023-04-15T04:07:26.098Z,67.42
2023-04-15T04:08:26.067Z,67.42
2023-04-15T04:09:26.084Z,67.42
2023-04-15T04:10:26.048Z,67.42
2023-04-15T04:11:26.029Z,67.42
2023-04-15T04:12:26.013Z,67.42
2023-04-15T04:13:26.026Z,67.42
2023-04-15T04:14:25.982Z,67.42
2023-04-15T04:15:32.020Z,67.42
2023-04-15T04:16:26.030Z,67.42
2023-04-15T04:17:25.985Z,67.42
2023-04-15T04:18:25.931Z,67.42
2023-04-15T04:19:25.918Z,67.42
2023-04-15T04:20:31.924Z,67.42
2023-04-15T04:21:25.905Z,67.42
2023-04-15T04:22:25.881Z,67.42
2023-04-15T04:23:25.865Z,67.42
2023-04-15T04:24:25.857Z,67.42
2023-04-15T04:25:25.845Z,67.42
2023-04-15T04:26:25.823Z,67.42
2023-04-15T04:27:25.824Z,67.42
2023-04-15T04:28:25.811Z,67.42
2023-04-15T04:29:25.806Z,67.42
2023-04-15T04:30:25.777Z,67.42
2023-04-15T04:31:25.805Z,67.42
2023-04-15T04:32:25.769Z,67.42
2023-04-15T04:33:25.733Z,67.42
2023-04-15T04:34:25.720Z,67.42
2023-04-15T04:35:31.714Z,67.42
2023-04-15T04:36:25.691Z,67.42
2023-04-15T04:37:25.706Z,67.42
2023-04-15T04:38:25.660Z,67.42
2023-04-15T04:39:25.650Z,67.42
2023-04-15T04:40:25.635Z,67.42
2023-04-15T04:41:25.626Z,67.42
2023-04-15T04:42:25.604Z,67.42
2023-04-15T04:43:25.596Z,67.42
2023-04-15T04:44:25.585Z,67.42
2023-04-15T04:45:25.591Z,67.52
2023-04-15T04:46:25.552Z,67.52
2023-04-15T04:47:25.546Z,67.52
2023-04-15T04:48:25.526Z,67.42
2023-04-15T04:49:25.533Z,67.52
2023-04-15T04:50:25.499Z,67.52
2023-04-15T04:51:25.491Z,67.52
2023-04-15T04:52:25.474Z,67.52
2023-04-15T04:53:25.463Z,67.52
2023-04-15T04:54:25.454Z,67.52
2023-04-15T04:55:25.433Z,67.52
2023-04-15T04:56:25.418Z,67.52
2023-04-15T04:57:25.406Z,67.52
2023-04-15T04:58:25.393Z,67.52
2023-04-15T04:59:25.381Z,67.52
2023-04-15T05:00:25.377Z,67.52
2023-04-15T05:01:25.392Z,67.52
2023-04-15T05:02:25.439Z,67.42
2023-04-15T05:03:25.444Z,67.52
2023-04-15T05:04:25.308Z,67.52
2023-04-15T05:05:25.299Z,67.52
2023-04-15T05:06:25.284Z,67.52
2023-04-15T05:07:25.274Z,67.52
2023-04-15T05:08:25.258Z,67.52
2023-04-15T05:09:25.248Z,67.52
2023-04-15T05:10:25.239Z,67.52
2023-04-15T05:11:25.236Z,67.52
2023-04-15T05:12:25.209Z,67.52
2023-04-15T05:13:25.198Z,67.52
2023-04-15T05:14:25.181Z,67.52
2023-04-15T05:15:25.171Z,67.52
2023-04-15T05:16:25.158Z,67.52
2023-04-15T05:17:25.175Z,67.52
2023-04-15T05:18:25.128Z,67.52
2023-04-15T05:19:25.112Z,67.52
2023-04-15T05:20:25.101Z,67.52
2023-04-15T05:21:25.098Z,67.52
2023-04-15T05:22:25.075Z,67.52
2023-04-15T05:23:25.062Z,67.62
2023-04-15T05:24:25.051Z,67.52
2023-04-15T05:25:25.035Z,67.62
2023-04-15T05:26:25.021Z,67.62
2023-04-15T05:27:25.022Z,67.62
2023-04-15T05:28:24.992Z,67.62
2023-04-15T05:29:24.981Z,67.62
2023-04-15T05:30:24.978Z,67.62
2023-04-15T05:31:25.018Z,67.62
2023-04-15T05:32:24.985Z,67.62
2023-04-15T05:33:24.959Z,67.62
2023-04-15T05:34:24.911Z,67.62
2023-04-15T05:35:24.906Z,67.62
2023-04-15T05:36:24.897Z,67.62
2023-04-15T05:37:24.881Z,67.62
2023-04-15T05:38:24.858Z,67.62
2023-04-15T05:39:24.851Z,67.62
2023-04-15T05:40:24.839Z,67.62
2023-04-15T05:41:24.824Z,67.62
2023-04-15T05:42:24.807Z,67.73
2023-04-15T05:43:24.792Z,67.73
2023-04-15T05:44:24.779Z,67.73
2023-04-15T05:45:24.770Z,67.73
2023-04-15T05:46:24.808Z,67.73
2023-04-15T05:47:24.784Z,67.62
2023-04-15T05:48:24.726Z,67.73
2023-04-15T05:49:24.734Z,67.73
2023-04-15T05:50:24.700Z,67.73
2023-04-15T05:51:24.687Z,67.73
2023-04-15T05:52:24.676Z,67.73
2023-04-15T05:53:24.660Z,67.73
2023-04-15T05:54:24.650Z,67.73
2023-04-15T05:55:24.637Z,67.73
2023-04-15T05:56:24.619Z,67.73
2023-04-15T05:57:24.610Z,67.73
2023-04-15T05:58:24.592Z,67.73
2023-04-15T05:59:24.580Z,67.73
2023-04-15T06:00:24.567Z,67.73
2023-04-15T06:01:24.553Z,67.73
2023-04-15T06:02:24.630Z,67.73
2023-04-15T06:03:24.696Z,67.73
2023-04-15T06:04:24.572Z,67.73
2023-04-15T06:05:24.526Z,67.73
2023-04-15T06:06:24.485Z,67.73
2023-04-15T06:07:24.477Z,67.73
2023-04-15T06:08:24.460Z,67.73
2023-04-15T06:09:24.447Z,67.73
2023-04-15T06:10:24.439Z,67.73
2023-04-15T06:11:24.420Z,67.73
2023-04-15T06:12:24.408Z,67.73
2023-04-15T06:13:24.394Z,67.73
2023-04-15T06:14:24.377Z,67.73
2023-04-15T06:15:24.370Z,67.73
2023-04-15T06:16:24.384Z,67.73
2023-04-15T06:17:24.375Z,67.73
2023-04-15T06:18:24.325Z,67.83
2023-04-15T06:19:24.315Z,67.83
2023-04-15T06:20:24.299Z,67.83
2023-04-15T06:21:24.319Z,67.73
2023-04-15T06:22:24.279Z,67.73
2023-04-15T06:23:26.281Z,67.73
2023-04-15T06:24:24.245Z,67.73
2023-04-15T06:25:24.233Z,67.73
2023-04-15T06:26:24.219Z,67.73
2023-04-15T06:27:24.213Z,67.73
2023-04-15T06:28:24.192Z,67.83
2023-04-15T06:29:24.181Z,67.83
2023-04-15T06:30:24.552Z,67.83
2023-04-15T06:31:24.170Z,67.83
2023-04-15T06:32:24.195Z,67.83
2023-04-15T06:33:24.240Z,67.83
2023-04-15T06:34:24.116Z,67.83
2023-04-15T06:35:24.099Z,67.83
2023-04-15T06:36:24.107Z,67.83
2023-04-15T06:37:24.101Z,67.73
2023-04-15T06:38:24.057Z,67.83
2023-04-15T06:39:24.045Z,67.73
2023-04-15T06:40:24.040Z,67.73
2023-04-15T06:41:24.019Z,67.73
2023-04-15T06:42:24.003Z,67.73
2023-04-15T06:43:23.992Z,67.83
2023-04-15T06:44:23.977Z,67.83
2023-04-15T06:45:24.069Z,67.73
2023-04-15T06:46:23.981Z,67.73
2023-04-15T06:47:23.954Z,67.73
2023-04-15T06:48:23.922Z,67.73
2023-04-15T06:49:23.911Z,67.73
2023-04-15T06:50:23.898Z,67.73
2023-04-15T06:51:25.580Z,67.83
2023-04-15T06:52:23.875Z,67.73
2023-04-15T06:53:29.887Z,67.83
2023-04-15T06:54:23.843Z,67.83
2023-04-15T06:55:23.843Z,67.73
2023-04-15T06:56:23.817Z,67.73
2023-04-15T06:57:23.806Z,67.73
2023-04-15T06:58:23.792Z,67.73
2023-04-15T06:59:23.777Z,67.73
2023-04-15T07:00:23.769Z,67.73
2023-04-15T07:01:23.783Z,67.73
2023-04-15T07:02:23.830Z,67.83
2023-04-15T07:03:23.727Z,67.83
2023-04-15T07:04:23.720Z,67.73
2023-04-15T07:05:23.703Z,67.73
2023-04-15T07:06:23.681Z,67.73
2023-04-15T07:07:23.670Z,67.73
2023-04-15T07:08:23.657Z,67.73
2023-04-15T07:09:23.666Z,67.73
2023-04-15T07:10:24.542Z,67.73
2023-04-15T07:11:23.618Z,67.73
2023-04-15T07:12:23.606Z,67.73
2023-04-15T07:13:23.589Z,67.73
2023-04-15T07:14:23.575Z,67.73
2023-04-15T07:15:23.608Z,67.73
2023-04-15T07:16:23.597Z,67.73
2023-04-15T07:17:23.552Z,67.73
2023-04-15T07:18:23.551Z,68.34
2023-04-15T07:19:23.528Z,68.54
2023-04-15T07:20:23.504Z,68.45
2023-04-15T07:21:23.487Z,68.34
2023-04-15T07:22:23.468Z,68.34
2023-04-15T07:23:23.459Z,68.34
2023-04-15T07:24:23.443Z,68.24
2023-04-15T07:25:23.478Z,68.24
2023-04-15T07:26:23.499Z,68.13
2023-04-15T07:27:23.409Z,68.13
2023-04-15T07:28:23.387Z,68.13
2023-04-15T07:29:23.375Z,68.13
2023-04-15T07:30:23.371Z,68.24
2023-04-15T07:31:23.420Z,68.13
2023-04-15T07:32:23.356Z,68.24
2023-04-15T07:33:23.328Z,68.24
2023-04-15T07:34:23.319Z,68.24
2023-04-15T07:35:23.297Z,68.24
2023-04-15T07:36:23.315Z,68.24
2023-04-15T07:37:23.277Z,68.34
2023-04-15T07:38:23.259Z,68.34
2023-04-15T07:39:23.244Z,68.34
2023-04-15T07:40:23.230Z,68.65
2023-04-15T07:41:23.334Z,68.65
2023-04-15T07:42:23.203Z,68.75
2023-04-15T07:43:23.200Z,68.65
2023-04-15T07:44:23.179Z,68.54
2023-04-15T07:45:23.163Z,68.54
2023-04-15T07:46:23.180Z,68.54
2023-04-15T07:47:23.152Z,68.45
2023-04-15T07:48:23.126Z,68.45
2023-04-15T07:49:23.114Z,68.34
2023-04-15T07:50:23.267Z,68.24
2023-04-15T07:51:23.079Z,68.24
2023-04-15T07:52:23.072Z,68.24
2023-04-15T07:53:23.063Z,68.24
2023-04-15T07:54:23.044Z,68.24
2023-04-15T07:55:23.035Z,68.24
2023-04-15T07:56:23.022Z,68.24
2023-04-15T07:57:23.027Z,68.24
2023-04-15T07:58:22.989Z,68.24
2023-04-15T07:59:22.980Z,68.24
2023-04-15T08:00:22.980Z,68.24
2023-04-15T08:01:22.951Z,68.34
2023-04-15T08:02:23.084Z,68.34
2023-04-15T08:03:23.062Z,68.34
2023-04-15T08:04:23.060Z,68.34
2023-04-15T08:05:23.033Z,68.24
2023-04-15T08:06:22.885Z,68.24
2023-04-15T08:07:22.863Z,68.24
2023-04-15T08:08:22.859Z,68.24
2023-04-15T08:09:22.851Z,68.24
2023-04-15T08:10:22.838Z,68.24
2023-04-15T08:11:22.821Z,68.24
2023-04-15T08:12:22.794Z,68.24
2023-04-15T08:13:22.808Z,68.24
2023-04-15T08:14:22.795Z,68.24
2023-04-15T08:15:22.755Z,68.24
2023-04-15T08:16:22.898Z,68.24
2023-04-15T08:17:22.759Z,68.24
2023-04-15T08:18:22.724Z,68.24
2023-04-15T08:19:22.705Z,68.24
2023-04-15T08:20:22.696Z,68.24
2023-04-15T08:21:22.682Z,68.24
2023-04-15T08:22:22.668Z,68.24
2023-04-15T08:23:22.656Z,68.24
2023-04-15T08:24:22.642Z,68.24
2023-04-15T08:25:22.626Z,68.24
2023-04-15T08:26:22.624Z,68.24
2023-04-15T08:27:22.594Z,68.24
2023-04-15T08:28:22.609Z,68.13
2023-04-15T08:29:22.597Z,68.13
2023-04-15T08:30:22.564Z,68.13
2023-04-15T08:31:22.602Z,68.13
2023-04-15T08:32:22.582Z,68.13
2023-04-15T08:33:22.518Z,68.13
2023-04-15T08:34:22.507Z,68.13
2023-04-15T08:35:22.494Z,68.13
2023-04-15T08:36:22.480Z,68.13
2023-04-15T08:37:22.462Z,68.13
2023-04-15T08:38:22.463Z,68.13
2023-04-15T08:39:22.444Z,68.13
2023-04-15T08:40:22.428Z,68.24
2023-04-15T08:41:22.435Z,68.13
2023-04-15T08:42:22.399Z,68.13
2023-04-15T08:43:22.383Z,68.13
2023-04-15T08:44:22.371Z,68.13
2023-04-15T08:45:22.388Z,68.13
2023-04-15T08:46:22.359Z,68.13
2023-04-15T08:47:22.356Z,68.13
2023-04-15T08:48:22.319Z,68.13
2023-04-15T08:49:22.305Z,68.13
2023-04-15T08:50:22.304Z,68.13
2023-04-15T08:51:23.824Z,68.13
2023-04-15T08:52:22.264Z,68.13
2023-04-15T08:53:22.256Z,68.24
2023-04-15T08:54:22.243Z,68.13
2023-04-15T08:55:22.226Z,68.24
2023-04-15T08:56:22.244Z,68.24
2023-04-15T08:57:22.199Z,68.24
2023-04-15T08:58:22.193Z,68.24
2023-04-15T08:59:22.225Z,68.24
2023-04-15T09:00:22.159Z,68.24
2023-04-15T09:01:22.224Z,68.24
2023-04-15T09:02:22.249Z,68.24
2023-04-15T09:03:22.207Z,68.24
2023-04-15T09:04:22.108Z,68.24
2023-04-15T09:05:22.092Z,68.24
2023-04-15T09:06:22.077Z,68.24
2023-04-15T09:07:22.076Z,68.34
2023-04-15T09:08:22.102Z,68.34
2023-04-15T09:09:22.039Z,68.34
2023-04-15T09:10:22.052Z,68.34
2023-04-15T09:11:22.020Z,68.34
2023-04-15T09:12:22.011Z,68.34
2023-04-15T09:13:21.987Z,68.45
2023-04-15T09:14:21.975Z,68.45
2023-04-15T09:15:21.961Z,68.45
2023-04-15T09:16:22.040Z,68.45
2023-04-15T09:17:22.048Z,68.45
2023-04-15T09:18:21.922Z,68.45
2023-04-15T09:19:21.904Z,68.45
2023-04-15T09:20:21.898Z,68.45
2023-04-15T09:21:21.874Z,68.45
2023-04-15T09:22:21.868Z,68.45
2023-04-15T09:23:21.851Z,68.45
2023-04-15T09:24:21.840Z,68.45
2023-04-15T09:25:21.838Z,68.45
2023-04-15T09:26:21.809Z,68.45
2023-04-15T09:27:21.795Z,68.45
2023-04-15T09:28:21.780Z,68.45
2023-04-15T09:29:21.764Z,68.45
2023-04-15T09:30:21.757Z,68.45
2023-04-15T09:31:21.842Z,68.45
2023-04-15T09:32:21.783Z,68.45
2023-04-15T09:33:21.741Z,68.54
2023-04-15T09:34:21.703Z,68.45
2023-04-15T09:35:21.699Z,68.45
2023-04-15T09:36:21.707Z,68.45
2023-04-15T09:37:32.127Z,68.45
2023-04-15T09:38:22.689Z,68.45
2023-04-15T09:39:21.639Z,68.54
2023-04-15T09:40:21.654Z,68.45
2023-04-15T09:41:21.604Z,68.45
2023-04-15T09:42:21.594Z,68.45
2023-04-15T09:43:21.581Z,68.54
2023-04-15T09:44:21.567Z,68.54
2023-04-15T09:45:21.556Z,68.54
2023-04-15T09:46:21.602Z,68.54
2023-04-15T09:47:21.551Z,68.54
2023-04-15T09:48:21.529Z,68.54
2023-04-15T09:49:21.554Z,68.54
2023-04-15T09:50:21.496Z,68.54
2023-04-15T09:51:21.473Z,68.54
2023-04-15T09:52:21.460Z,68.54
2023-04-15T09:53:21.444Z,68.54
2023-04-15T09:54:21.432Z,68.54
2023-04-15T09:55:21.419Z,68.54
2023-04-15T09:56:21.408Z,68.54
2023-04-15T09:57:21.394Z,68.54
2023-04-15T09:58:21.390Z,68.65
2023-04-15T09:59:21.915Z,68.65
2023-04-15T10:00:21.355Z,68.65
2023-04-15T10:01:21.377Z,68.65
2023-04-15T10:02:21.514Z,68.65
2023-04-15T10:03:21.548Z,68.65
2023-04-15T10:04:21.427Z,68.65
2023-04-15T10:05:21.315Z,68.65
2023-04-15T10:06:21.278Z,68.65
2023-04-15T10:07:21.261Z,68.65
2023-04-15T10:08:21.250Z,68.65
2023-04-15T10:09:21.243Z,68.65
2023-04-15T10:10:21.224Z,68.65
2023-04-15T10:11:21.214Z,68.65
2023-04-15T10:12:21.196Z,68.65
2023-04-15T10:13:21.184Z,68.75
2023-04-15T10:14:21.171Z,68.75
2023-04-15T10:15:21.154Z,68.75
2023-04-15T10:16:21.235Z,68.75
2023-04-15T10:17:21.193Z,68.75
2023-04-15T10:18:21.116Z,68.75
2023-04-15T10:19:21.099Z,68.75
2023-04-15T10:20:21.087Z,68.75
2023-04-15T10:21:21.100Z,68.75
2023-04-15T10:22:21.067Z,68.65
2023-04-15T10:23:21.048Z,68.75
2023-04-15T10:24:21.039Z,68.75
2023-04-15T10:25:21.033Z,68.75
2023-04-15T10:26:21.015Z,68.75
2023-04-15T10:27:20.999Z,68.75
2023-04-15T10:28:20.982Z,68.75
2023-04-15T10:29:20.979Z,68.75
2023-04-15T10:30:20.959Z,68.75
2023-04-15T10:31:20.979Z,68.75
2023-04-15T10:32:20.946Z,68.75
2023-04-15T10:33:20.914Z,68.75
2023-04-15T10:34:20.899Z,68.75
2023-04-15T10:35:20.887Z,68.75
2023-04-15T10:36:20.873Z,68.75
2023-04-15T10:37:20.884Z,68.75
2023-04-15T10:38:20.848Z,68.75
2023-04-15T10:39:20.833Z,68.75
2023-04-15T10:40:20.821Z,68.75
2023-04-15T10:41:21.562Z,68.85
2023-04-15T10:42:20.798Z,68.85
2023-04-15T10:43:20.780Z,68.85
2023-04-15T10:44:20.771Z,68.85
2023-04-15T10:45:20.758Z,68.85
2023-04-15T10:46:20.779Z,68.85
2023-04-15T10:47:20.726Z,68.85
2023-04-15T10:48:20.719Z,68.85
2023-04-15T10:49:20.698Z,68.85
2023-04-15T10:50:20.699Z,68.85
2023-04-15T10:51:20.676Z,68.85
2023-04-15T10:52:20.664Z,68.85
2023-04-15T10:53:21.859Z,68.85
2023-04-15T10:54:20.635Z,68.85
2023-04-15T10:55:20.642Z,68.85
2023-04-15T10:56:20.610Z,68.75
2023-04-15T10:57:20.597Z,68.85
2023-04-15T10:58:20.581Z,68.85
2023-04-15T10:59:22.350Z,68.85
2023-04-15T11:00:20.554Z,68.85
2023-04-15T11:01:20.589Z,68.85
2023-04-15T11:02:20.616Z,68.85
2023-04-15T11:03:20.580Z,68.85
2023-04-15T11:04:20.563Z,68.85
2023-04-15T11:05:20.483Z,68.85
2023-04-15T11:06:20.473Z,68.85
2023-04-15T11:07:20.463Z,68.85
2023-04-15T11:08:20.450Z,68.85
2023-04-15T11:09:20.456Z,68.85
2023-04-15T11:10:20.417Z,68.85
2023-04-15T11:11:20.403Z,68.96
2023-04-15T11:12:20.392Z,68.96
2023-04-15T11:13:20.375Z,68.85
2023-04-15T11:14:20.365Z,68.85
2023-04-15T11:15:20.350Z,68.85
2023-04-15T11:16:20.359Z,68.85
2023-04-15T11:17:20.324Z,68.85
2023-04-15T11:18:20.344Z,68.85
2023-04-15T11:19:20.306Z,68.85
2023-04-15T11:20:20.310Z,68.85
2023-04-15T11:21:20.286Z,68.96
2023-04-15T11:22:20.256Z,68.96
2023-04-15T11:23:20.248Z,68.85
2023-04-15T11:24:20.231Z,68.85
2023-04-15T11:25:20.242Z,68.85
2023-04-15T11:26:20.206Z,68.85
2023-04-15T11:27:20.190Z,68.96
2023-04-15T11:28:20.179Z,68.85
2023-04-15T11:29:20.165Z,68.85
2023-04-15T11:30:20.152Z,68.85
2023-04-15T11:31:20.381Z,68.85
2023-04-15T11:32:20.144Z,68.85
2023-04-15T11:33:20.109Z,68.85
2023-04-15T11:34:20.099Z,68.96
2023-04-15T11:35:20.084Z,68.96
2023-04-15T11:36:20.074Z,68.85
2023-04-15T11:37:20.057Z,68.85
2023-04-15T11:38:20.048Z,68.85
2023-04-15T11:39:20.031Z,68.85
2023-04-15T11:40:20.022Z,68.85
2023-04-15T11:41:20.029Z,68.96
2023-04-15T11:42:19.994Z,68.96
2023-04-15T11:43:19.979Z,68.85
2023-04-15T11:44:19.970Z,68.85
2023-04-15T11:45:19.951Z,68.85
2023-04-15T11:46:20.128Z,68.96
2023-04-15T11:47:19.950Z,68.96
2023-04-15T11:48:19.938Z,68.96
2023-04-15T11:49:19.902Z,68.85
2023-04-15T11:50:19.895Z,68.96
2023-04-15T11:51:19.877Z,68.96
2023-04-15T11:52:19.867Z,68.96
2023-04-15T11:53:19.849Z,68.85
2023-04-15T11:54:19.835Z,68.96
2023-04-15T11:55:19.824Z,68.96
2023-04-15T11:56:19.804Z,68.96
2023-04-15T11:57:19.823Z,68.96
2023-04-15T11:58:19.781Z,68.96
2023-04-15T11:59:19.773Z,68.96
2023-04-15T12:00:19.753Z,69.06
2023-04-15T12:01:19.744Z,69.06
2023-04-15T12:02:19.848Z,69.06
2023-04-15T12:03:19.984Z,69.06
2023-04-15T12:04:22.439Z,69.06
2023-04-15T12:05:19.708Z,69.06
2023-04-15T12:06:19.792Z,69.06
2023-04-15T12:07:19.659Z,69.06
2023-04-15T12:08:19.644Z,69.06
2023-04-15T12:09:19.634Z,69.06
2023-04-15T12:10:19.618Z,69.06
2023-04-15T12:11:19.604Z,69.06
2023-04-15T12:12:19.611Z,69.06
2023-04-15T12:13:19.603Z,69.06
2023-04-15T12:14:19.563Z,69.06
2023-04-15T12:15:19.555Z,69.16
2023-04-15T12:16:19.703Z,69.16
2023-04-15T12:17:19.565Z,69.06
2023-04-15T12:18:19.510Z,69.16
2023-04-15T12:19:19.502Z,69.06
2023-04-15T12:20:19.488Z,69.06
2023-04-15T12:21:19.474Z,69.06
2023-04-15T12:22:19.459Z,69.06
2023-04-15T12:23:19.448Z,69.06
2023-04-15T12:24:19.432Z,69.06
2023-04-15T12:25:19.421Z,69.06
2023-04-15T12:26:19.414Z,69.06
2023-04-15T12:27:19.402Z,69.06
2023-04-15T12:28:19.381Z,69.06
2023-04-15T12:29:19.409Z,69.06
2023-04-15T12:30:19.354Z,69.06
2023-04-15T12:31:19.369Z,69.06
2023-04-15T12:32:19.349Z,69.16
2023-04-15T12:33:19.322Z,69.16
2023-04-15T12:34:19.305Z,69.06
2023-04-15T12:35:19.295Z,69.16
2023-04-15T12:36:19.284Z,69.16
2023-04-15T12:37:19.268Z,69.16
2023-04-15T12:38:19.251Z,69.16
2023-04-15T12:39:19.236Z,69.16
2023-04-15T12:40:19.223Z,69.16
2023-04-15T12:41:19.213Z,69.16
2023-04-15T12:42:19.273Z,69.16
2023-04-15T12:43:19.186Z,69.16
2023-04-15T12:44:19.174Z,69.16
2023-04-15T12:45:19.198Z,69.16
2023-04-15T12:46:20.689Z,69.26
2023-04-15T12:47:19.172Z,69.16
2023-04-15T12:48:19.119Z,69.16
2023-04-15T12:49:19.108Z,69.26
2023-04-15T12:50:19.095Z,69.26
2023-04-15T12:51:19.083Z,69.26
2023-04-15T12:52:19.065Z,69.26